Time;durP1;ratioP1;P1;durP2;ratioP2;P2;SDS_P1;SDS_P2;PMS_P1;PMS_P2;Temp;Humidity;BMP_temperature;BMP_pressure;BME280_temperature;BME280_humidity;BME280_pressure;Samples;Min_cycle;Max_cycle;Signal;HPM_P1;HPM_P2
2021/01/27 00:00:20;;;;;;;12.75;8.25;;;;;;;0.47;83.02;99394.32;1720883;83;21155;-46
2021/01/27 00:02:49;;;;;;;11.38;7.80;;;;;;;0.50;82.92;99394.80;1721021;83;21313;-46
2021/01/27 00:05:20;;;;;;;12.60;8.25;;;;;;;0.55;82.88;99399.66;1720923;83;21613;-42
2021/01/27 00:07:48;;;;;;;13.20;7.92;;;;;;;0.58;82.65;99394.60;1720921;83;21167;-47
2021/01/27 00:10:18;;;;;;;14.70;7.97;;;;;;;0.60;82.43;99389.06;1720853;83;21176;-42
2021/01/27 00:12:46;;;;;;;9.93;7.75;;;;;;;0.63;82.12;99384.39;1720907;83;21234;-41
2021/01/27 00:15:21;;;;;;;11.68;7.72;;;;;;;0.63;81.78;99377.95;1721021;83;21805;-47
2021/01/27 00:17:50;;;;;;;11.50;8.13;;;;;;;0.62;81.62;99380.09;1720951;83;21158;-41
2021/01/27 00:20:20;;;;;;;15.10;8.33;;;;;;;0.60;81.53;99376.19;1720909;83;21304;-41
2021/01/27 00:22:48;;;;;;;11.50;7.72;;;;;;;0.61;81.48;99368.05;1720909;83;21171;-46
2021/01/27 00:25:20;;;;;;;14.75;8.28;;;;;;;0.61;81.42;99371.91;1720947;83;21231;-42
2021/01/27 00:27:49;;;;;;;;;;;;;;;0.61;81.39;99367.63;1723649;83;21175;-42
2021/01/27 00:30:34;;;;;;;11.97;7.67;;;;;;;0.59;81.43;99364.58;1720975;83;20238;-47
2021/01/27 00:33:03;;;;;;;12.28;7.80;;;;;;;0.60;81.29;99366.31;1720461;83;21174;-42
2021/01/27 00:35:35;;;;;;;15.45;7.62;;;;;;;0.58;81.21;99359.85;1721103;83;21186;-41
2021/01/27 00:38:19;;;;;;;10.90;7.28;;;;;;;0.59;80.96;99360.30;1720945;83;21158;-42
2021/01/27 00:40:47;;;;;;;11.30;7.42;;;;;;;0.59;80.79;99359.44;1720960;83;21213;-42
2021/01/27 00:43:15;;;;;;;11.05;7.35;;;;;;;0.58;80.70;99352.52;1720888;83;21328;-41
2021/01/27 00:45:43;;;;;;;11.80;6.75;;;;;;;0.58;80.48;99353.41;1720892;83;21194;-47
2021/01/27 00:48:11;;;;;;;12.00;7.50;;;;;;;0.58;80.22;99348.66;1720929;83;21139;-41
2021/01/27 00:50:39;;;;;;;12.23;8.18;;;;;;;0.58;80.12;99339.64;1720972;83;21642;-48
2021/01/27 00:53:07;;;;;;;11.45;7.40;;;;;;;0.58;80.14;99339.64;1720735;83;21210;-43
2021/01/27 00:55:37;;;;;;;13.50;8.55;;;;;;;0.58;80.15;99337.07;1720847;83;21685;-42
2021/01/27 00:58:05;;;;;;;10.53;7.33;;;;;;;0.59;80.29;99338.42;1720949;83;21638;-42
2021/01/27 01:00:39;;;;;;;12.93;8.10;;;;;;;0.63;80.29;99335.06;1720684;83;21590;-42
2021/01/27 01:03:10;;;;;;;11.20;7.10;;;;;;;0.67;79.94;99331.73;1720970;83;21206;-47
2021/01/27 01:05:42;;;;;;;10.38;7.78;;;;;;;0.69;79.53;99316.32;1721115;83;21598;-42
2021/01/27 01:08:14;;;;;;;12.80;7.70;;;;;;;0.70;78.98;99314.22;1720892;82;21139;-47
2021/01/27 01:10:46;;;;;;;11.25;7.00;;;;;;;0.71;78.57;99318.53;1720936;83;21167;-42
2021/01/27 01:13:17;;;;;;;11.78;7.50;;;;;;;0.72;78.08;99312.55;1721110;82;21622;-42
2021/01/27 01:15:45;;;;;;;13.55;8.08;;;;;;;0.72;77.58;99303.53;1721000;83;21183;-47
2021/01/27 01:18:13;;;;;;;10.95;7.55;;;;;;;0.72;77.25;99290.66;1720997;83;21175;-43
2021/01/27 01:20:41;;;;;;;12.65;7.47;;;;;;;0.69;77.02;99286.29;1720856;83;21632;-47
2021/01/27 01:23:09;;;;;;;12.18;7.97;;;;;;;0.67;76.97;99278.09;1720816;83;21183;-42
2021/01/27 01:25:38;;;;;;;12.00;7.65;;;;;;;0.65;77.01;99275.91;1720973;83;21186;-47
2021/01/27 01:28:06;;;;;;;10.35;7.62;;;;;;;0.62;77.20;99271.54;1720927;82;21199;-48
2021/01/27 01:30:37;;;;;;;11.97;7.53;;;;;;;0.60;77.36;99263.34;1720976;83;21198;-42
2021/01/27 01:33:10;;;;;;;11.93;8.25;;;;;;;0.56;77.76;99262.39;1720598;83;21218;-47
2021/01/27 01:35:38;;;;;;;12.53;8.60;;;;;;;0.56;78.06;99256.38;1720932;83;21170;-47
2021/01/27 01:38:05;;;;;;;13.05;8.05;;;;;;;0.54;78.17;99252.48;1720856;83;21287;-42
2021/01/27 01:40:40;;;;;;;14.43;8.88;;;;;;;0.52;78.28;99251.17;1721097;83;21213;-41
2021/01/27 01:43:19;;;;;;;13.40;8.28;;;;;;;0.51;78.30;99237.83;1720826;83;21159;-42
2021/01/27 01:45:58;;;;;;;12.43;8.05;;;;;;;0.50;78.56;99234.80;1720884;83;21209;-42
2021/01/27 01:48:39;;;;;;;11.48;7.40;;;;;;;0.50;78.41;99232.23;1720871;82;21225;-43
2021/01/27 01:51:31;;;;;;;11.28;8.03;;;;;;;0.50;78.29;99218.49;1720847;83;21227;-41
2021/01/27 01:54:03;;;;;;;;;;;;;;;0.50;77.89;99218.49;1723561;83;21190;-43
2021/01/27 01:56:32;;;;;;;12.70;8.10;;;;;;;0.49;77.84;99224.48;1720886;83;20211;-41
2021/01/27 01:59:02;;;;;;;12.33;8.00;;;;;;;0.47;77.58;99222.30;1720978;83;21176;-42
2021/01/27 02:01:30;;;;;;;14.43;8.63;;;;;;;0.45;77.37;99222.23;1720851;83;21139;-47
2021/01/27 02:03:59;;;;;;;11.30;7.65;;;;;;;0.44;77.39;99222.22;1720840;83;21186;-42
2021/01/27 02:06:27;;;;;;;12.07;8.00;;;;;;;0.45;77.57;99228.67;1720895;83;21339;-46
2021/01/27 02:08:57;;;;;;;12.75;8.03;;;;;;;0.46;77.57;99229.54;1720959;83;21194;-41
2021/01/27 02:11:43;;;;;;;14.28;9.03;;;;;;;0.48;77.24;99233.05;1721019;83;21257;-43
2021/01/27 02:14:37;;;;;;;14.45;9.13;;;;;;;0.47;77.35;99246.33;1721012;83;21170;-46
2021/01/27 02:17:19;;;;;;;12.25;8.13;;;;;;;0.49;77.27;99250.22;1720872;83;21316;-46
2021/01/27 02:20:21;;;;;;;13.88;8.40;;;;;;;0.52;77.11;99247.31;1720922;82;21170;-46
2021/01/27 02:23:32;;;;;;;13.03;8.45;;;;;;;0.52;76.93;99243.84;1706107;84;21240;-47
2021/01/27 02:26:28;;;;;;;12.98;8.70;;;;;;;0.51;77.13;99253.27;1658294;86;21268;-48
2021/01/27 02:29:19;;;;;;;17.57;9.13;;;;;;;0.53;76.90;99258.47;1658503;86;21572;-46
2021/01/27 02:32:21;;;;;;;11.05;8.20;;;;;;;0.56;76.72;99262.81;1658425;85;21714;-40
2021/01/27 02:35:04;;;;;;;12.58;8.08;;;;;;;0.58;76.64;99270.14;1658486;86;21212;-42
2021/01/27 02:37:37;;;;;;;12.75;8.15;;;;;;;0.61;76.65;99271.52;1658598;86;21766;-41
2021/01/27 02:40:27;;;;;;;12.95;8.05;;;;;;;0.63;76.47;99267.26;1658320;86;21189;-47
2021/01/27 02:43:24;;;;;;;13.43;8.10;;;;;;;0.67;76.01;99271.23;1658395;86;21222;-42
2021/01/27 02:46:12;;;;;;;13.08;7.78;;;;;;;0.66;75.80;99263.06;1658359;86;21857;-44
2021/01/27 02:48:58;;;;;;;12.35;8.33;;;;;;;0.64;75.64;99263.45;1658361;85;21728;-47
2021/01/27 02:51:42;;;;;;;10.88;7.05;;;;;;;0.67;75.50;99257.49;1754727;79;23171;-41
2021/01/27 02:54:15;;;;;;;11.60;7.60;;;;;;;0.62;75.17;99261.66;1722744;83;21187;-43
2021/01/27 02:56:53;;;;;;;;;;;;;;;0.61;75.19;99268.52;1725427;82;21256;-42
2021/01/27 02:59:41;;;;;;;13.32;8.85;;;;;;;0.58;74.88;99273.61;1695778;83;20455;-48
2021/01/27 03:02:18;;;;;;;16.07;9.63;;;;;;;0.53;74.60;99269.64;1722811;82;21190;-47
2021/01/27 03:05:11;;;;;;;17.17;8.55;;;;;;;0.52;74.90;99263.14;1722912;82;21175;-42
2021/01/27 03:07:40;;;;;;;18.23;10.30;;;;;;;0.53;74.79;99250.33;1722916;83;21155;-44
2021/01/27 03:10:19;;;;;;;18.87;10.88;;;;;;;0.51;74.95;99254.55;1722887;82;21143;-42
2021/01/27 03:12:49;;;;;;;19.45;11.40;;;;;;;0.53;74.88;99257.19;1695243;83;21183;-47
2021/01/27 03:15:17;;;;;;;18.23;10.05;;;;;;;0.54;74.89;99258.92;1694873;83;21555;-42
2021/01/27 03:17:47;;;;;;;16.70;10.23;;;;;;;0.54;75.08;99260.20;1722833;83;21191;-51
2021/01/27 03:20:21;;;;;;;19.67;10.58;;;;;;;0.57;75.08;99265.83;1722804;82;21604;-47
2021/01/27 03:23:00;;;;;;;20.77;10.90;;;;;;;0.58;75.11;99274.00;1722881;83;21144;-43
2021/01/27 03:25:33;;;;;;;19.12;10.85;;;;;;;0.58;74.86;99262.03;1718236;82;21152;-46
2021/01/27 03:28:21;;;;;;;20.65;10.82;;;;;;;0.58;74.87;99264.99;1722903;83;21522;-41
2021/01/27 03:30:51;;;;;;;18.17;11.20;;;;;;;0.58;74.84;99264.99;1722691;82;21128;-43
2021/01/27 03:33:50;;;;;;;16.95;10.82;;;;;;;0.57;74.90;99260.27;1722920;82;21203;-41
2021/01/27 03:36:17;;;;;;;19.02;11.68;;;;;;;0.57;75.02;99260.69;1722709;82;21182;-42
2021/01/27 03:38:48;;;;;;;17.95;10.28;;;;;;;0.56;75.04;99256.38;1671680;83;21606;-42
2021/01/27 03:41:24;;;;;;;19.67;10.63;;;;;;;0.57;75.07;99259.40;1722848;82;21208;-47
2021/01/27 03:44:03;;;;;;;17.92;10.28;;;;;;;0.56;75.00;99257.23;1722818;83;21140;-40
2021/01/27 03:46:42;;;;;;;18.25;10.08;;;;;;;0.56;74.84;99257.23;1722810;82;21199;-47
2021/01/27 03:49:34;;;;;;;19.48;10.45;;;;;;;0.56;74.93;99266.67;1722823;82;21163;-42
2021/01/27 03:52:15;;;;;;;20.52;10.20;;;;;;;0.52;75.20;99261.47;1722632;83;21155;-47
2021/01/27 03:54:49;;;;;;;17.55;9.58;;;;;;;0.50;75.51;99266.98;1722718;82;21207;-41
2021/01/27 03:57:24;;;;;;;18.48;9.95;;;;;;;0.51;75.70;99253.69;1722873;83;21226;-47
2021/01/27 03:59:52;;;;;;;19.10;11.90;;;;;;;0.52;75.83;99250.27;1722899;82;21588;-47
2021/01/27 04:02:22;;;;;;;18.73;10.55;;;;;;;0.52;75.71;99248.60;1722396;83;21760;-42
2021/01/27 04:04:51;;;;;;;18.07;9.98;;;;;;;0.52;75.62;99238.30;1722266;82;21210;-47
2021/01/27 04:07:19;;;;;;;18.82;11.50;;;;;;;0.52;75.76;99242.55;1722342;83;21215;-42
2021/01/27 04:09:47;;;;;;;17.57;10.35;;;;;;;0.50;75.58;99239.95;1722231;82;21179;-41
2021/01/27 04:12:15;;;;;;;13.60;9.18;;;;;;;0.46;76.05;99241.98;1722327;82;21151;-46
2021/01/27 04:14:43;;;;;;;14.33;9.83;;;;;;;0.43;76.57;99238.08;1722167;82;21626;-47
2021/01/27 04:17:18;;;;;;;16.82;10.50;;;;;;;0.38;76.93;99233.23;1722281;83;21128;-41
2021/01/27 04:19:46;;;;;;;16.42;10.75;;;;;;;0.35;77.38;99233.17;1721485;82;21714;-42
2021/01/27 04:22:14;;;;;;;15.88;9.85;;;;;;;0.31;77.80;99223.63;1722279;83;21215;-47
2021/01/27 04:24:44;;;;;;;17.02;10.48;;;;;;;0.28;78.18;99219.69;1722183;82;21151;-47
2021/01/27 04:27:12;;;;;;;15.43;9.65;;;;;;;0.27;78.29;99217.95;1722435;82;21150;-47
2021/01/27 04:29:40;;;;;;;16.42;10.55;;;;;;;0.24;78.40;99216.61;1722277;82;21175;-47
2021/01/27 04:32:08;;;;;;;18.73;10.75;;;;;;;0.20;78.69;99215.66;1722418;83;21532;-41
2021/01/27 04:34:36;;;;;;;16.85;10.78;;;;;;;0.18;78.77;99212.61;1722231;82;21742;-41
2021/01/27 04:37:04;;;;;;;16.50;10.55;;;;;;;0.15;79.06;99213.38;1722176;83;21507;-42
2021/01/27 04:39:32;;;;;;;16.57;10.58;;;;;;;0.14;79.27;99205.22;1722217;83;21309;-41
2021/01/27 04:42:00;;;;;;;16.12;11.15;;;;;;;0.12;79.38;99199.17;1722244;83;21190;-46
2021/01/27 04:44:28;;;;;;;15.58;9.65;;;;;;;0.12;79.58;99202.17;1722236;82;21143;-47
2021/01/27 04:47:04;;;;;;;17.65;11.22;;;;;;;0.11;79.71;99199.98;1722086;82;21321;-48
2021/01/27 04:49:39;;;;;;;15.08;9.88;;;;;;;0.09;79.79;99193.95;1713857;83;21108;-42
2021/01/27 04:52:20;;;;;;;18.42;10.35;;;;;;;0.07;80.04;99184.47;1709501;83;21242;-47
2021/01/27 04:55:19;;;;;;;16.12;10.48;;;;;;;0.06;80.13;99177.17;1709599;82;21678;-46
2021/01/27 04:58:07;;;;;;;15.45;10.28;;;;;;;0.04;80.20;99179.23;1709540;84;21207;-42
2021/01/27 05:00:52;;;;;;;21.62;11.80;;;;;;;-0.01;80.36;99179.12;1666853;85;21693;-42
2021/01/27 05:04:06;;;;;;;16.57;11.38;;;;;;;-0.04;80.71;99176.48;1667014;85;21719;-42
2021/01/27 05:06:37;;;;;;;18.20;11.90;;;;;;;-0.03;81.02;99185.94;1666821;85;21212;-40
2021/01/27 05:09:16;;;;;;;16.32;10.58;;;;;;;-0.03;81.26;99182.94;1666888;86;21190;-40
2021/01/27 05:11:44;;;;;;;18.62;10.32;;;;;;;-0.04;81.39;99178.64;1666928;85;21210;-41
2021/01/27 05:14:15;;;;;;;17.85;10.00;;;;;;;-0.04;81.46;99175.20;1666886;85;21229;-46
2021/01/27 05:16:43;;;;;;;16.80;11.70;;;;;;;-0.06;81.54;99173.89;1666871;86;21150;-46
2021/01/27 05:19:11;;;;;;;16.77;11.08;;;;;;;-0.07;81.67;99177.68;1644705;86;21261;-48
2021/01/27 05:21:41;;;;;;;14.58;9.93;;;;;;;-0.07;81.80;99178.97;1646091;86;21182;-47
2021/01/27 05:24:10;;;;;;;19.05;11.85;;;;;;;-0.08;82.07;99180.67;1675335;84;21774;-42
2021/01/27 05:26:49;;;;;;;17.27;10.60;;;;;;;-0.06;82.25;99178.13;1686934;84;21219;-47
2021/01/27 05:29:21;;;;;;;18.55;10.45;;;;;;;-0.06;82.47;99176.45;1671844;85;21167;-47
2021/01/27 05:32:08;;;;;;;16.75;11.85;;;;;;;-0.06;82.68;99170.03;1692658;84;21220;-47
2021/01/27 05:34:54;;;;;;;23.35;14.38;;;;;;;-0.06;82.89;99171.70;1667457;85;21807;-47
2021/01/27 05:37:32;;;;;;;33.28;19.27;;;;;;;-0.08;83.25;99172.95;1680148;83;21183;-42
2021/01/27 05:40:23;;;;;;;23.80;14.85;;;;;;;-0.08;83.55;99179.39;1688294;84;21167;-47
2021/01/27 05:42:51;;;;;;;18.87;11.68;;;;;;;-0.07;83.71;99185.39;1707688;83;21671;-43
2021/01/27 05:45:36;;;;;;;24.85;14.05;;;;;;;-0.09;83.87;99187.07;1707206;83;21617;-42
2021/01/27 05:48:16;;;;;;;29.80;16.23;;;;;;;-0.13;84.09;99184.83;1707734;84;22008;-43
2021/01/27 05:50:44;;;;;;;23.92;13.78;;;;;;;-0.13;84.37;99187.40;1705530;84;21152;-47
2021/01/27 05:53:23;;;;;;;16.70;11.05;;;;;;;-0.08;84.51;99183.66;1700007;84;21519;-42
2021/01/27 05:56:01;;;;;;;12.07;8.35;;;;;;;-0.08;84.49;99184.95;1707090;82;21635;-41
2021/01/27 05:58:34;;;;;;;13.50;9.18;;;;;;;-0.08;84.61;99184.95;1704798;82;21197;-41
2021/01/27 06:01:33;;;;;;;15.85;10.63;;;;;;;-0.11;84.66;99182.31;1699132;84;21146;-47
2021/01/27 06:04:19;;;;;;;16.75;10.50;;;;;;;-0.14;84.91;99183.09;1659829;85;21264;-48
2021/01/27 06:06:54;;;;;;;16.82;10.63;;;;;;;-0.15;85.27;99182.64;1659019;85;21256;-42
2021/01/27 06:09:40;;;;;;;;;;;;;;;-0.14;85.51;99177.95;1663485;84;21198;-48
2021/01/27 06:12:24;;;;;;;20.50;10.53;;;;;;;-0.12;85.56;99180.55;1801919;76;23191;-46
2021/01/27 06:15:08;;;;;;;19.85;10.70;;;;;;;-0.22;85.82;99184.61;1803311;78;21285;-47
2021/01/27 06:17:49;;;;;;;21.23;12.30;;;;;;;-0.26;86.05;99191.78;1809471;78;21154;-47
2021/01/27 06:20:33;;;;;;;17.23;10.75;;;;;;;-0.28;86.37;99196.03;1781133;78;21656;-47
2021/01/27 06:23:32;;;;;;;16.45;10.00;;;;;;;-0.31;86.55;99185.23;1805872;78;21198;-43
2021/01/27 06:26:15;;;;;;;15.75;10.40;;;;;;;-0.35;86.62;99185.11;1803629;78;21450;-48
2021/01/27 06:29:20;;;;;;;17.02;11.22;;;;;;;-0.40;87.00;99185.02;1803756;78;21299;-47
2021/01/27 06:32:11;;;;;;;21.25;11.30;;;;;;;-0.44;87.26;99181.03;1808798;78;21170;-41
2021/01/27 06:34:54;;;;;;;17.73;10.90;;;;;;;-0.46;87.54;99183.99;1810063;78;21162;-41
2021/01/27 06:37:50;;;;;;;20.33;11.37;;;;;;;-0.46;88.08;99173.72;1806225;78;21741;-47
2021/01/27 06:40:57;;;;;;;16.27;10.13;;;;;;;-0.47;88.37;99168.09;1802035;78;21990;-47
2021/01/27 06:43:56;;;;;;;17.55;10.55;;;;;;;-0.51;88.67;99154.31;1812242;78;21986;-47
2021/01/27 06:47:05;;;;;;;17.55;11.18;;;;;;;-0.51;88.81;99150.46;1799199;78;21150;-41
2021/01/27 06:49:48;;;;;;;15.03;10.28;;;;;;;-0.49;89.06;99158.20;1812756;78;21174;-42
2021/01/27 06:52:33;;;;;;;21.52;11.85;;;;;;;-0.48;89.07;99159.94;1802845;78;21699;-41
2021/01/27 06:55:37;;;;;;;17.90;10.50;;;;;;;-0.50;88.92;99157.75;1808144;78;21198;-41
2021/01/27 06:58:19;;;;;;;16.25;10.43;;;;;;;-0.49;89.10;99153.06;1806924;78;21329;-41
2021/01/27 07:00:58;;;;;;;14.98;9.15;;;;;;;-0.48;89.24;99147.09;1808787;78;21153;-47
2021/01/27 07:04:01;;;;;;;15.48;10.35;;;;;;;-0.48;89.29;99136.80;1809134;78;21650;-42
2021/01/27 07:07:08;;;;;;;15.68;10.10;;;;;;;-0.47;89.39;99131.70;1812617;78;21197;-48
2021/01/27 07:10:01;;;;;;;16.35;10.32;;;;;;;-0.47;89.32;99121.84;1812775;78;21160;-48
2021/01/27 07:12:46;;;;;;;14.07;9.43;;;;;;;-0.47;89.33;99119.27;1803368;78;21330;-47
2021/01/27 07:15:27;;;;;;;14.95;9.43;;;;;;;-0.50;89.23;99118.79;1803969;78;21146;-40
2021/01/27 07:18:54;;;;;;;18.40;11.05;;;;;;;-0.52;89.53;99115.70;1778052;78;21166;-47
2021/01/27 07:21:49;;;;;;;17.17;10.03;;;;;;;-0.52;89.83;99114.42;1804587;78;21265;-41
2021/01/27 07:24:34;;;;;;;13.80;9.08;;;;;;;-0.50;90.00;99119.20;1801820;78;21478;-47
2021/01/27 07:33:07;;;;;;;15.90;9.48;;;;;;;-0.46;89.86;99119.33;1802127;78;21431;-47
2021/01/27 07:37:13;;;;;;;18.95;10.93;;;;;;;-0.44;89.95;99117.66;1807760;78;21187;-46
2021/01/27 07:40:48;;;;;;;15.28;10.15;;;;;;;-0.46;89.87;99118.05;1801368;78;21162;-47
2021/01/27 07:43:53;;;;;;;19.92;10.20;;;;;;;-0.45;90.09;99120.20;1802355;79;21111;-47
2021/01/27 07:46:55;;;;;;;15.90;10.08;;;;;;;-0.45;90.15;99117.63;1803283;78;21118;-41
2021/01/27 07:49:29;;;;;;;18.37;10.95;;;;;;;-0.45;90.35;99118.91;1805912;78;21172;-47
2021/01/27 07:51:58;;;;;;;16.00;10.90;;;;;;;-0.46;90.56;99128.74;1803283;78;21678;-41
2021/01/27 07:54:35;;;;;;;21.40;11.25;;;;;;;-0.46;90.60;99128.32;1801682;78;21740;-47
2021/01/27 07:57:21;;;;;;;18.37;11.22;;;;;;;-0.44;90.79;99135.64;1804376;78;21635;-40
2021/01/27 07:59:55;;;;;;;16.30;10.32;;;;;;;-0.38;90.80;99135.80;1802496;78;21291;-42
2021/01/27 08:02:30;;;;;;;20.88;11.43;;;;;;;-0.35;90.70;99136.27;1796883;78;21305;-42
2021/01/27 08:05:08;;;;;;;19.35;11.80;;;;;;;-0.34;90.40;99129.91;1802902;78;21308;-47
2021/01/27 08:07:43;;;;;;;18.32;11.75;;;;;;;-0.33;90.26;99121.36;1806557;78;21177;-46
2021/01/27 08:10:19;;;;;;;18.90;11.22;;;;;;;-0.29;89.99;99122.28;1757925;78;21635;-48
2021/01/27 08:13:04;;;;;;;21.90;13.35;;;;;;;-0.27;89.83;99108.66;1796573;78;21163;-42
2021/01/27 08:15:58;;;;;;;21.77;13.40;;;;;;;-0.25;89.60;99105.25;1799284;79;21193;-41
2021/01/27 08:18:27;;;;;;;19.70;11.80;;;;;;;-0.23;89.57;99095.86;1798224;77;21211;-49
2021/01/27 08:21:20;;;;;;;21.55;13.50;;;;;;;-0.21;89.50;99092.52;1792287;79;21155;-41
2021/01/27 08:23:56;;;;;;;20.48;12.82;;;;;;;-0.18;89.25;99086.14;1804094;77;23139;-42
2021/01/27 08:26:47;;;;;;;19.92;12.88;;;;;;;-0.23;89.44;99083.01;1807346;78;21139;-47
2021/01/27 08:29:30;;;;;;;19.92;12.55;;;;;;;-0.20;89.61;99081.39;1804749;78;21438;-50
2021/01/27 08:32:33;;;;;;;20.12;12.70;;;;;;;-0.21;89.32;99073.23;1798892;78;21176;-44
2021/01/27 08:35:14;;;;;;;20.80;12.75;;;;;;;-0.19;89.55;99068.98;1782165;78;21650;-48
2021/01/27 08:38:07;;;;;;;19.30;12.80;;;;;;;-0.18;89.58;99073.28;1770574;78;21164;-42
2021/01/27 08:40:43;;;;;;;23.95;13.93;;;;;;;-0.18;89.80;99068.14;1786440;78;21158;-48
2021/01/27 08:43:15;;;;;;;19.23;12.63;;;;;;;-0.18;90.11;99066.86;1804970;78;21629;-47
2021/01/27 08:45:46;;;;;;;21.52;12.80;;;;;;;-0.19;90.24;99062.97;1808728;78;21146;-49
2021/01/27 09:06:45;;;;;;;19.85;13.75;;;;;;;-0.21;90.31;99059.09;1777688;79;21115;-47
2021/01/27 09:28:08;;;;;;;17.23;11.00;;;;;;;-0.06;89.41;99024.74;1743304;79;21144;-39
2021/01/27 09:30:36;;;;;;;21.37;12.15;;;;;;;-0.06;89.53;99029.88;1766302;79;21163;-51
2021/01/27 09:33:34;;;;;;;20.50;12.25;;;;;;;-0.02;89.33;99025.66;1763442;79;21119;-41
2021/01/27 09:36:13;;;;;;;21.07;12.58;;;;;;;-0.01;88.95;99030.83;1759531;79;21143;-46
2021/01/27 09:38:55;;;;;;;20.08;12.47;;;;;;;-0.02;88.96;99026.95;1737274;80;21341;-45
2021/01/27 09:41:28;;;;;;;16.12;10.25;;;;;;;0.00;88.94;99021.44;1777262;80;21639;-45
2021/01/27 09:43:57;;;;;;;16.52;10.72;;;;;;;0.03;88.76;99023.19;1758147;81;21127;-45
2021/01/27 09:49:09;;;;;;;16.57;10.80;;;;;;;0.10;88.60;99026.34;1763191;79;23187;-45
2021/01/27 09:51:53;;;;;;;13.13;9.60;;;;;;;0.07;88.48;99029.73;1662064;83;21189;-45
2021/01/27 09:54:22;;;;;;;21.37;11.68;;;;;;;0.07;88.44;99024.59;1661152;84;21167;-46
2021/01/27 09:56:55;;;;;;;17.75;10.48;;;;;;;0.08;88.48;99019.88;1723630;81;21706;-45
2021/01/27 09:59:23;;;;;;;19.27;10.98;;;;;;;0.09;88.22;99016.89;1719528;81;21545;-40
2021/01/27 10:01:51;;;;;;;18.07;11.50;;;;;;;0.10;88.25;99017.34;1722695;81;21137;-46
2021/01/27 10:04:36;;;;;;;17.20;10.58;;;;;;;0.09;88.24;99010.46;1720334;81;21174;-41
2021/01/27 10:07:26;;;;;;;18.10;11.08;;;;;;;0.07;88.36;99014.30;1715171;81;21740;-46
2021/01/27 10:09:58;;;;;;;17.37;10.93;;;;;;;0.07;88.51;99005.30;1714784;81;21811;-45
2021/01/27 10:12:28;;;;;;;17.40;12.15;;;;;;;0.08;88.60;99006.16;1724051;81;21139;-40
2021/01/27 10:15:13;;;;;;;15.75;10.32;;;;;;;0.08;88.70;99001.88;1722111;81;21763;-41
2021/01/27 10:17:42;;;;;;;20.00;10.75;;;;;;;0.11;88.70;99003.64;1714240;81;21230;-41
2021/01/27 10:20:23;;;;;;;14.70;9.93;;;;;;;0.09;88.85;99001.04;1717461;81;21202;-47
2021/01/27 10:22:59;;;;;;;17.10;11.00;;;;;;;0.09;88.94;99004.03;1657708;84;21202;-46
2021/01/27 10:25:37;;;;;;;16.90;10.35;;;;;;;0.06;88.63;98989.42;1666321;83;21186;-45
2021/01/27 10:28:19;;;;;;;15.78;9.73;;;;;;;0.05;88.64;98994.09;1661304;84;21230;-45
2021/01/27 10:30:52;;;;;;;17.35;10.13;;;;;;;0.06;88.50;98988.52;1716146;81;21614;-46
2021/01/27 10:33:50;;;;;;;17.60;9.85;;;;;;;0.04;88.37;98988.50;1726593;81;21680;-47
2021/01/27 10:36:46;;;;;;;16.62;10.48;;;;;;;0.05;88.67;98983.80;1729551;81;21177;-44
2021/01/27 10:39:43;;;;;;;16.85;9.45;;;;;;;0.08;88.73;98985.16;1727724;81;21184;-45
2021/01/27 10:42:22;;;;;;;16.80;8.65;;;;;;;0.15;88.52;98989.59;1693526;81;21926;-42
2021/01/27 10:45:29;;;;;;;17.87;9.55;;;;;;;0.18;88.40;98987.52;1727975;81;21658;-45
2021/01/27 10:48:24;;;;;;;15.43;10.35;;;;;;;0.18;88.42;98983.66;1654032;84;21328;-45
2021/01/27 10:51:03;;;;;;;15.65;9.03;;;;;;;0.24;88.39;98981.21;1632125;85;21555;-47
2021/01/27 10:53:40;;;;;;;14.35;9.13;;;;;;;0.30;88.20;98970.17;1796615;78;22976;-47
2021/01/27 10:56:08;;;;;;;16.42;10.05;;;;;;;0.24;87.69;98974.36;1768192;79;21328;-46
2021/01/27 10:58:36;;;;;;;13.55;8.45;;;;;;;0.21;87.72;98960.55;1771241;79;21198;-46
2021/01/27 11:01:04;;;;;;;18.42;10.10;;;;;;;0.17;87.57;98968.61;1766534;79;21675;-44
2021/01/27 11:03:32;;;;;;;13.03;9.30;;;;;;;0.15;87.49;98961.30;1776892;80;21186;-47
2021/01/27 11:06:15;;;;;;;16.95;9.28;;;;;;;0.17;87.64;98962.19;1715256;81;21187;-42
2021/01/27 11:08:54;;;;;;;14.83;8.68;;;;;;;0.18;87.97;98961.80;1700498;82;21250;-48
2021/01/27 11:11:38;;;;;;;15.00;9.15;;;;;;;0.17;88.22;98951.03;1684299;82;21261;-48
2021/01/27 11:15:32;;;;;;;15.32;8.85;;;;;;;0.16;88.13;98953.16;1699504;82;21171;-42
2021/01/27 11:25:56;;;;;;;12.85;8.63;;;;;;;0.14;88.45;98935.13;1708789;82;21769;-44
2021/01/27 11:29:12;;;;;;;11.75;8.03;;;;;;;0.09;88.42;98936.74;1709546;82;21130;-45
2021/01/27 11:33:18;;;;;;;12.93;8.48;;;;;;;0.02;88.70;98934.89;1704651;81;21166;-40
2021/01/27 11:36:28;;;;;;;13.30;8.53;;;;;;;-0.02;88.73;98926.23;1710769;81;21903;-43
2021/01/27 11:38:56;;;;;;;14.73;9.15;;;;;;;-0.09;88.80;98918.37;1722713;81;21705;-41
2021/01/27 11:41:25;;;;;;;16.77;9.85;;;;;;;-0.09;89.11;98909.38;1714843;81;21163;-48
2021/01/27 11:43:55;;;;;;;14.23;9.10;;;;;;;-0.08;89.01;98898.25;1725895;81;21182;-47
2021/01/27 11:46:28;;;;;;;19.85;9.68;;;;;;;-0.07;89.06;98906.41;1715412;82;21178;-47
2021/01/27 11:49:00;;;;;;;17.02;10.13;;;;;;;-0.03;89.21;98894.06;1694067;83;21247;-44
2021/01/27 11:51:37;;;;;;;;;;;;;;;-0.02;89.09;98882.94;1705850;82;22195;-49
2021/01/27 11:54:11;;;;;;;14.10;9.33;;;;;;;-0.01;88.93;98889.39;1693255;83;20390;-43
2021/01/27 11:56:40;;;;;;;12.40;8.58;;;;;;;-0.04;88.96;98877.77;1756338;80;21182;-42
2021/01/27 11:59:12;;;;;;;15.25;9.25;;;;;;;-0.04;88.91;98873.92;1760234;80;21693;-47
2021/01/27 12:01:41;;;;;;;15.78;9.53;;;;;;;-0.05;88.65;98858.05;1766077;80;21224;-42
2021/01/27 12:04:09;;;;;;;16.20;9.95;;;;;;;-0.04;88.74;98859.77;1761480;80;21533;-42
2021/01/27 12:06:41;;;;;;;13.90;9.13;;;;;;;0.00;88.66;98850.42;1766052;80;21143;-43
2021/01/27 12:09:11;;;;;;;;;;;;;;;-0.01;88.42;98854.67;1735915;80;21186;-46
2021/01/27 12:11:39;;;;;;;15.23;9.23;;;;;;;-0.02;88.30;98845.66;1758363;80;20159;-42
2021/01/27 12:14:07;;;;;;;13.28;8.98;;;;;;;-0.02;88.05;98846.52;1708453;83;21376;-46
2021/01/27 12:16:35;;;;;;;14.07;9.83;;;;;;;-0.05;87.67;98849.05;1739192;80;21151;-43
2021/01/27 12:19:03;;;;;;;17.98;10.60;;;;;;;-0.07;87.75;98844.69;1767592;80;21796;-42
2021/01/27 12:21:31;;;;;;;14.68;9.50;;;;;;;-0.09;87.87;98844.67;1704293;82;22020;-42
2021/01/27 12:24:00;;;;;;;16.35;9.58;;;;;;;-0.06;88.16;98852.46;1758768;80;21138;-41
2021/01/27 12:26:28;;;;;;;15.08;9.68;;;;;;;-0.05;87.69;98845.61;1762417;80;21163;-45
2021/01/27 12:28:56;;;;;;;14.65;9.45;;;;;;;-0.06;87.62;98851.56;1754148;80;21179;-45
2021/01/27 12:31:25;;;;;;;15.98;10.05;;;;;;;-0.08;87.79;98846.41;1736583;82;21720;-45
2021/01/27 12:33:53;;;;;;;16.62;10.30;;;;;;;-0.11;87.51;98854.49;1766777;80;21225;-46
2021/01/27 12:36:21;;;;;;;15.43;9.95;;;;;;;-0.15;87.61;98853.55;1770371;80;21205;-41
2021/01/27 12:38:49;;;;;;;16.65;9.58;;;;;;;-0.15;87.97;98856.13;1755871;80;21954;-41
2021/01/27 12:41:17;;;;;;;16.35;10.28;;;;;;;-0.14;87.78;98841.56;1752883;80;21147;-41
2021/01/27 12:43:45;;;;;;;18.05;10.10;;;;;;;-0.14;87.81;98846.28;1752840;80;21174;-41
2021/01/27 12:46:13;;;;;;;16.87;9.50;;;;;;;-0.12;87.90;98843.73;1760283;80;21155;-41
2021/01/27 12:48:41;;;;;;;13.58;9.35;;;;;;;-0.12;87.88;98833.03;1769899;80;21575;-41
2021/01/27 12:51:09;;;;;;;16.75;10.30;;;;;;;-0.11;87.72;98841.22;1775149;80;21188;-41
2021/01/27 12:53:37;;;;;;;14.90;10.03;;;;;;;-0.12;87.58;98841.16;1751062;80;21144;-40
2021/01/27 12:56:05;;;;;;;18.15;10.13;;;;;;;-0.14;87.68;98842.42;1721072;83;21189;-45
2021/01/27 12:58:33;;;;;;;13.48;9.13;;;;;;;-0.15;87.55;98832.12;1759577;81;21183;-45
2021/01/27 13:01:01;;;;;;;16.12;10.45;;;;;;;-0.18;87.56;98828.19;1739786;81;21181;-41
2021/01/27 13:03:29;;;;;;;16.60;10.60;;;;;;;-0.20;87.83;98826.02;1739817;81;21187;-41
2021/01/27 13:05:56;;;;;;;19.90;10.80;;;;;;;-0.22;87.86;98824.72;1740587;81;21181;-41
2021/01/27 13:08:25;;;;;;;15.05;10.03;;;;;;;-0.25;87.78;98811.78;1739675;81;21180;-41
2021/01/27 13:10:52;;;;;;;15.65;10.70;;;;;;;-0.29;87.68;98815.12;1741582;81;21177;-41
2021/01/27 13:13:20;;;;;;;15.65;9.83;;;;;;;-0.33;88.04;98814.22;1739704;81;21156;-42